Time;durP1;ratioP1;P1;durP2;ratioP2;P2;SDS_P1;SDS_P2;PMS_P1;PMS_P2;Temp;Humidity;BMP_temperature;BMP_pressure;BME280_temperature;BME280_humidity;BME280_pressure;Samples;Min_cycle;Max_cycle;Signal;HPM_P1;HPM_P2
2023/11/24 00:00:37;;;;;;;21.92;2.78;;;;;;;8.86;100.00;101024.69;5043572;28;21192;-65
2023/11/24 00:03:02;;;;;;;33.72;3.90;;;;;;;8.86;100.00;101027.28;5040112;28;20025;-65
2023/11/24 00:05:28;;;;;;;19.33;2.25;;;;;;;8.80;100.00;101034.78;5043414;28;20042;-66
2023/11/24 00:07:53;;;;;;;28.55;3.45;;;;;;;8.83;100.00;101024.16;5040033;28;20052;-65
2023/11/24 00:10:19;;;;;;;24.25;3.75;;;;;;;8.88;100.00;101025.38;5040971;28;20052;-66
2023/11/24 00:12:44;;;;;;;28.63;3.38;;;;;;;8.84;100.00;101013.69;5038108;28;20036;-65
2023/11/24 00:15:10;;;;;;;34.50;5.85;;;;;;;8.81;100.00;101034.63;5041943;28;20041;-66
2023/11/24 00:17:38;;;;;;;32.28;3.72;;;;;;;8.73;100.00;101047.44;5042799;28;20048;-65
2023/11/24 00:20:10;;;;;;;27.58;3.75;;;;;;;8.72;100.00;101049.22;5035179;28;20068;-65
2023/11/24 00:22:36;;;;;;;30.00;3.97;;;;;;;8.74;100.00;101051.69;5056077;28;20037;-65
2023/11/24 00:25:01;;;;;;;24.23;3.38;;;;;;;8.73;100.00;101045.66;5037579;28;20039;-66
2023/11/24 00:27:27;;;;;;;24.92;3.92;;;;;;;8.74;100.00;101036.97;5033064;28;20029;-65
2023/11/24 00:29:53;;;;;;;34.72;3.28;;;;;;;8.75;100.00;101046.34;5036891;28;20025;-65
2023/11/24 00:32:19;;;;;;;25.52;2.60;;;;;;;8.83;100.00;101057.78;5040095;28;20451;-65
2023/11/24 00:34:45;;;;;;;32.17;3.78;;;;;;;8.77;100.00;101049.59;5035044;28;20037;-65
2023/11/24 00:37:10;;;;;;;28.30;3.25;;;;;;;8.73;100.00;101062.97;5042226;28;20498;-65
2023/11/24 00:39:39;;;;;;;25.77;3.08;;;;;;;8.72;100.00;101054.41;5042199;28;20045;-66
2023/11/24 00:42:04;;;;;;;35.78;3.00;;;;;;;8.69;100.00;101057.25;5039087;28;20033;-65
2023/11/24 00:44:30;;;;;;;29.73;3.95;;;;;;;8.67;100.00;101043.66;5040151;28;20037;-65
2023/11/24 00:46:55;;;;;;;30.80;3.08;;;;;;;8.68;100.00;101053.06;5043927;28;20036;-65
2023/11/24 00:49:21;;;;;;;28.17;3.65;;;;;;;8.68;100.00;101053.06;5043375;28;20044;-65
2023/11/24 00:51:47;;;;;;;27.70;3.33;;;;;;;8.72;100.00;101056.16;5053006;28;20041;-65
2023/11/24 00:54:12;;;;;;;22.92;3.47;;;;;;;8.70;100.00;101052.88;5042027;28;20037;-66
2023/11/24 00:56:38;;;;;;;29.98;4.03;;;;;;;8.68;100.00;101049.63;5060906;28;20045;-65
2023/11/24 00:59:05;;;;;;;28.70;4.43;;;;;;;8.68;100.00;101040.13;5043419;28;20430;-65
2023/11/24 01:01:31;;;;;;;31.98;3.05;;;;;;;8.68;100.00;101045.28;5044731;28;20045;-65
2023/11/24 01:03:58;;;;;;;27.05;3.58;;;;;;;8.63;100.00;101044.88;5044299;28;20033;-65
2023/11/24 01:06:24;;;;;;;26.60;2.83;;;;;;;8.58;100.00;101060.78;5042335;28;20090;-65
2023/11/24 01:08:49;;;;;;;29.40;3.60;;;;;;;8.69;100.00;101046.91;5039461;28;20040;-66
2023/11/24 01:11:15;;;;;;;24.83;3.58;;;;;;;8.70;100.00;101043.38;5025551;28;21329;-65
2023/11/24 01:13:40;;;;;;;23.92;3.17;;;;;;;8.60;100.00;101059.84;5038173;28;20035;-65
2023/11/24 01:16:06;;;;;;;33.97;3.55;;;;;;;8.50;100.00;101059.84;5038286;28;20095;-65
2023/11/24 01:18:36;;;;;;;25.35;3.78;;;;;;;8.46;100.00;101077.38;5040033;28;20032;-65
2023/11/24 01:21:02;;;;;;;32.75;3.75;;;;;;;8.49;100.00;101068.53;5041408;28;20085;-65
2023/11/24 01:23:27;;;;;;;25.38;3.78;;;;;;;8.38;100.00;101070.28;5043809;28;20522;-64
2023/11/24 01:25:54;;;;;;;33.72;4.18;;;;;;;8.30;100.00;101082.22;5043411;28;20083;-66
2023/11/24 01:28:22;;;;;;;25.92;4.35;;;;;;;8.46;100.00;101072.22;5044943;28;20028;-65
2023/11/24 01:30:48;;;;;;;34.28;3.25;;;;;;;8.23;100.00;101087.13;5041971;28;20033;-65
2023/11/24 01:33:13;;;;;;;18.42;3.60;;;;;;;8.18;100.00;101069.44;5043342;28;20052;-66
2023/11/24 01:35:39;;;;;;;22.30;3.08;;;;;;;8.24;100.00;101075.03;5042577;28;20029;-65
2023/11/24 01:38:04;;;;;;;23.73;2.70;;;;;;;8.29;100.00;101085.78;5041519;28;20037;-64
2023/11/24 01:40:30;;;;;;;20.20;2.38;;;;;;;8.19;100.00;101090.91;5041737;28;20083;-65
2023/11/24 01:42:55;;;;;;;21.35;3.75;;;;;;;8.16;100.00;101091.19;5039608;28;20467;-66
2023/11/24 01:45:21;;;;;;;20.15;3.03;;;;;;;8.15;100.00;101085.19;5022367;28;20041;-66
2023/11/24 01:47:47;;;;;;;23.17;3.15;;;;;;;8.14;100.00;101077.59;5057429;28;20735;-65
2023/11/24 01:50:14;;;;;;;41.95;4.63;;;;;;;8.04;100.00;101069.81;5036665;28;20550;-65
2023/11/24 01:52:42;;;;;;;17.70;2.33;;;;;;;7.97;100.00;101071.31;5037515;28;20029;-65
2023/11/24 01:55:12;;;;;;;20.48;2.70;;;;;;;7.96;100.00;101070.47;5031633;28;20072;-65
2023/11/24 01:57:39;;;;;;;31.05;3.35;;;;;;;7.99;100.00;101048.75;5038412;28;20375;-64
2023/11/24 02:00:09;;;;;;;22.40;2.60;;;;;;;8.05;100.00;101049.97;5048309;28;20209;-65
2023/11/24 02:02:41;;;;;;;18.83;2.65;;;;;;;7.89;100.00;101053.06;5034137;28;20060;-66
2023/11/24 02:05:08;;;;;;;22.33;3.90;;;;;;;7.89;100.00;101059.06;5040453;28;20040;-66
2023/11/24 02:07:34;;;;;;;26.35;3.13;;;;;;;7.83;100.00;101049.25;5037076;28;20045;-65
2023/11/24 02:10:00;;;;;;;22.65;2.55;;;;;;;7.75;100.00;101052.47;5041850;28;20060;-65
2023/11/24 02:12:27;;;;;;;12.93;1.80;;;;;;;7.83;100.00;101041.50;5039955;28;20060;-65
2023/11/24 02:14:53;;;;;;;21.90;2.50;;;;;;;7.85;100.00;101049.09;5040678;28;20874;-65
2023/11/24 02:17:18;;;;;;;26.90;2.63;;;;;;;7.75;100.00;101049.09;5037819;28;20028;-65
2023/11/24 02:19:44;;;;;;;23.02;4.55;;;;;;;7.75;100.00;101042.16;5042691;28;20037;-65
2023/11/24 02:22:10;;;;;;;22.02;3.33;;;;;;;7.68;99.89;101038.47;5043171;28;20074;-65
2023/11/24 02:24:39;;;;;;;18.27;2.25;;;;;;;7.64;100.00;101044.84;5040590;28;20056;-65
2023/11/24 02:27:05;;;;;;;21.98;2.17;;;;;;;7.65;100.00;101048.22;5059679;28;20114;-65
2023/11/24 02:29:31;;;;;;;18.80;2.25;;;;;;;7.70;100.00;101039.13;5039520;28;20068;-65
2023/11/24 02:31:56;;;;;;;18.25;2.15;;;;;;;7.64;100.00;101033.69;5042100;28;20079;-65
2023/11/24 02:34:23;;;;;;;14.10;2.22;;;;;;;7.69;100.00;101032.34;5044434;28;20036;-65
2023/11/24 02:36:49;;;;;;;20.00;2.65;;;;;;;7.69;100.00;101021.22;5043747;28;20029;-65
2023/11/24 02:39:15;;;;;;;18.95;2.05;;;;;;;7.74;100.00;101009.56;5040254;28;20124;-65
2023/11/24 02:41:41;;;;;;;15.45;2.03;;;;;;;7.69;99.94;101016.06;5041566;28;20026;-65
2023/11/24 02:44:07;;;;;;;13.65;2.20;;;;;;;7.56;99.45;101021.44;5045676;28;20029;-65
2023/11/24 02:46:32;;;;;;;19.67;2.42;;;;;;;7.63;98.92;101024.31;5040782;28;20115;-65
2023/11/24 02:48:58;;;;;;;13.32;2.45;;;;;;;7.62;99.27;101030.44;5046861;28;20052;-65
2023/11/24 02:51:24;;;;;;;16.75;2.60;;;;;;;7.49;98.10;101017.75;5040989;28;20049;-65
2023/11/24 02:53:50;;;;;;;14.85;2.08;;;;;;;7.46;97.98;101020.59;5041830;28;20033;-65
2023/11/24 02:56:15;;;;;;;16.48;2.05;;;;;;;7.53;97.18;101021.69;5042972;28;20462;-65
2023/11/24 02:58:41;;;;;;;12.00;1.85;;;;;;;7.48;96.96;101016.94;5041858;28;20514;-65
2023/11/24 03:01:06;;;;;;;14.82;1.95;;;;;;;7.47;96.50;101012.72;5040091;28;20164;-65
2023/11/24 03:03:32;;;;;;;20.33;2.13;;;;;;;7.37;95.91;101007.53;5035281;28;20059;-65
2023/11/24 03:06:01;;;;;;;12.40;1.92;;;;;;;7.37;96.73;101006.72;5043073;28;20034;-65
2023/11/24 03:08:29;;;;;;;14.43;1.65;;;;;;;7.28;96.82;101004.91;5039308;28;20044;-65
2023/11/24 03:10:54;;;;;;;12.82;1.83;;;;;;;7.29;96.00;101003.94;5035064;28;20083;-65
2023/11/24 03:13:20;;;;;;;12.07;1.60;;;;;;;7.39;95.68;101000.47;5019363;28;20033;-65
2023/11/24 03:15:45;;;;;;;10.60;1.50;;;;;;;7.30;95.22;100990.13;5023314;28;20051;-65
2023/11/24 03:18:12;;;;;;;12.77;2.58;;;;;;;7.28;95.26;100981.69;5041738;28;20490;-65
2023/11/24 03:20:38;;;;;;;13.00;1.50;;;;;;;7.25;96.03;100990.50;5039521;28;20095;-64
2023/11/24 03:23:04;;;;;;;14.27;1.27;;;;;;;7.27;95.61;100986.06;5043716;28;21241;-65
2023/11/24 03:25:30;;;;;;;9.02;1.58;;;;;;;7.32;94.93;100983.88;5039753;28;20033;-65
2023/11/24 03:27:58;;;;;;;19.80;1.70;;;;;;;7.27;94.92;100980.88;5040750;28;20037;-65
2023/11/24 03:30:24;;;;;;;9.70;1.30;;;;;;;7.24;95.17;100981.13;5043072;28;20033;-65
2023/11/24 03:32:49;;;;;;;12.32;1.20;;;;;;;7.35;96.02;100972.50;5025085;28;20029;-65
2023/11/24 03:35:15;;;;;;;9.88;1.63;;;;;;;7.35;95.98;100969.91;5042445;28;20043;-65
2023/11/24 03:37:42;;;;;;;15.77;2.50;;;;;;;7.26;95.90;100962.97;5041505;28;20471;-65
2023/11/24 03:40:09;;;;;;;30.50;9.75;;;;;;;7.19;96.32;100967.81;5038276;28;20078;-65
2023/11/24 03:42:34;;;;;;;11.18;4.28;;;;;;;7.21;95.32;100965.91;5043936;28;20051;-64
2023/11/24 03:45:01;;;;;;;18.85;3.30;;;;;;;7.18;95.46;100956.69;5025228;28;20480;-65
2023/11/24 03:47:28;;;;;;;14.27;4.72;;;;;;;7.25;95.56;100961.31;5058850;28;20040;-65
2023/11/24 03:49:54;;;;;;;17.70;2.00;;;;;;;7.21;95.49;100953.00;5043408;28;20190;-65
2023/11/24 03:52:20;;;;;;;39.58;13.30;;;;;;;7.09;96.29;100954.88;5040749;28;20029;-65
2023/11/24 03:54:46;;;;;;;23.65;8.55;;;;;;;7.08;97.17;100963.53;5039303;28;20052;-65
2023/11/24 03:57:11;;;;;;;16.23;4.40;;;;;;;7.06;96.07;100956.91;5042621;28;20059;-65
2023/11/24 03:59:37;;;;;;;15.70;4.32;;;;;;;7.05;96.32;100955.28;5041366;28;20075;-65
2023/11/24 04:02:03;;;;;;;17.33;4.85;;;;;;;6.99;96.94;100949.69;5043306;28;20034;-65
2023/11/24 04:04:28;;;;;;;14.52;2.08;;;;;;;6.97;96.74;100948.19;5040428;28;20644;-65
2023/11/24 04:06:54;;;;;;;12.35;3.47;;;;;;;6.98;97.69;100947.22;5041273;28;20114;-65
2023/11/24 04:09:20;;;;;;;14.15;3.38;;;;;;;7.01;98.38;100949.56;5045091;28;20059;-67
2023/11/24 04:11:45;;;;;;;15.35;4.20;;;;;;;6.96;97.94;100949.94;5044598;28;20033;-65
2023/11/24 04:14:10;;;;;;;13.75;3.92;;;;;;;6.98;98.14;100954.97;5042755;28;20044;-66
2023/11/24 04:16:36;;;;;;;12.57;2.50;;;;;;;6.91;97.50;100941.78;5042800;28;20032;-64
2023/11/24 04:19:05;;;;;;;11.68;2.90;;;;;;;6.93;97.54;100944.22;5042706;28;20068;-65
2023/11/24 04:21:31;;;;;;;11.35;2.75;;;;;;;6.90;96.87;100942.72;5044179;28;20037;-64
2023/11/24 04:23:56;;;;;;;13.73;4.13;;;;;;;6.93;96.44;100942.47;5044196;28;20071;-65
2023/11/24 04:26:22;;;;;;;26.88;10.55;;;;;;;6.93;96.40;100942.47;5044987;28;20506;-64
2023/11/24 04:28:47;;;;;;;13.73;2.75;;;;;;;6.86;96.79;100953.44;5044261;28;20029;-65
2023/11/24 04:31:13;;;;;;;17.15;3.60;;;;;;;6.83;97.02;100947.56;5047097;28;20041;-65
2023/11/24 04:33:38;;;;;;;13.93;4.72;;;;;;;6.85;94.93;100956.94;5060496;28;20032;-65
2023/11/24 04:36:04;;;;;;;14.32;3.45;;;;;;;6.80;95.88;100957.31;5050713;28;20489;-65
2023/11/24 04:38:29;;;;;;;12.27;4.20;;;;;;;6.76;95.93;100954.19;5053264;28;20039;-65
2023/11/24 04:40:56;;;;;;;15.65;4.60;;;;;;;6.81;94.99;100949.44;5048654;28;20060;-65
2023/11/24 04:43:24;;;;;;;23.35;5.47;;;;;;;6.76;95.77;100953.34;5048828;28;20029;-65
2023/11/24 04:45:50;;;;;;;20.73;5.75;;;;;;;6.63;97.28;100943.25;5044467;28;20538;-65
2023/11/24 04:48:15;;;;;;;19.58;5.50;;;;;;;6.56;97.08;100944.72;5044793;28;20034;-65
2023/11/24 04:50:41;;;;;;;36.33;15.38;;;;;;;6.70;97.25;100940.97;5044143;28;21400;-65
2023/11/24 04:53:06;;;;;;;19.67;6.05;;;;;;;6.66;97.54;100932.69;5044844;28;20517;-65
2023/11/24 04:55:32;;;;;;;14.30;3.10;;;;;;;6.68;97.75;100937.72;5044155;28;20526;-65
2023/11/24 04:57:58;;;;;;;15.13;3.58;;;;;;;6.56;97.88;100927.47;5044543;28;20734;-65
2023/11/24 05:00:24;;;;;;;14.43;2.15;;;;;;;6.62;98.71;100923.56;5042501;28;20041;-65
2023/11/24 05:02:49;;;;;;;20.92;7.68;;;;;;;6.59;98.55;100923.81;5045822;28;20037;-65
2023/11/24 05:05:17;;;;;;;8.93;2.63;;;;;;;6.69;98.95;100914.41;5041590;28;20095;-65
2023/11/24 05:07:43;;;;;;;14.30;5.18;;;;;;;6.57;99.32;100913.66;5045192;28;20040;-65
2023/11/24 05:10:08;;;;;;;23.90;8.90;;;;;;;6.51;99.70;100906.41;5042624;28;20038;-65
2023/11/24 05:12:35;;;;;;;19.45;6.63;;;;;;;6.40;100.00;100916.78;5044333;28;20039;-65
2023/11/24 05:15:03;;;;;;;12.70;3.03;;;;;;;6.41;100.00;100919.25;5038834;28;20048;-65
2023/11/24 05:17:28;;;;;;;23.17;7.40;;;;;;;6.54;100.00;100911.34;5043102;28;20659;-65
2023/11/24 05:19:54;;;;;;;12.85;4.07;;;;;;;6.57;100.00;100910.25;5040656;28;20045;-65
2023/11/24 05:22:19;;;;;;;28.98;10.07;;;;;;;6.61;100.00;100916.78;5044400;28;20082;-65
2023/11/24 05:24:45;;;;;;;7.57;1.63;;;;;;;6.59;100.00;100918.66;5040833;28;20041;-65
2023/11/24 05:27:10;;;;;;;6.25;1.30;;;;;;;6.70;100.00;100913.44;5044625;28;20062;-65
2023/11/24 05:29:36;;;;;;;25.23;6.18;;;;;;;6.56;100.00;100913.78;5028609;28;20044;-65
2023/11/24 05:32:01;;;;;;;29.13;9.23;;;;;;;6.65;100.00;100913.03;5040755;28;20030;-65
2023/11/24 05:34:27;;;;;;;29.02;7.95;;;;;;;6.60;100.00;100905.66;5043531;28;20497;-65
2023/11/24 05:36:53;;;;;;;17.98;5.35;;;;;;;6.52;100.00;100913.22;5043801;28;20396;-65
2023/11/24 05:39:18;;;;;;;12.30;4.10;;;;;;;6.56;100.00;100917.16;5027646;28;20083;-65
2023/11/24 05:41:47;;;;;;;9.38;2.15;;;;;;;6.56;100.00;100913.78;5043915;28;20048;-65
2023/11/24 05:44:15;;;;;;;12.93;2.05;;;;;;;6.50;100.00;100911.69;5042012;28;20037;-65
2023/11/24 05:46:40;;;;;;;9.40;1.58;;;;;;;6.51;100.00;100908.19;5043408;28;20041;-65
2023/11/24 05:49:06;;;;;;;6.80;1.45;;;;;;;6.50;100.00;100914.28;5042399;28;20036;-66
2023/11/24 05:51:32;;;;;;;11.48;1.80;;;;;;;6.59;100.00;100908.34;5024382;28;20518;-65
2023/11/24 05:53:58;;;;;;;19.65;2.25;;;;;;;6.57;100.00;100915.41;5045319;28;20029;-65
2023/11/24 05:56:23;;;;;;;13.23;2.88;;;;;;;6.50;100.00;100904.81;5043137;28;20534;-65
2023/11/24 05:58:51;;;;;;;13.02;3.38;;;;;;;6.56;100.00;100906.06;5043535;28;20028;-65
2023/11/24 06:01:20;;;;;;;9.48;1.75;;;;;;;6.61;100.00;100906.47;5042929;28;20090;-65
2023/11/24 06:03:46;;;;;;;9.45;1.50;;;;;;;6.51;100.00;100905.63;5039863;28;20032;-65
2023/11/24 06:06:11;;;;;;;9.55;1.42;;;;;;;6.38;100.00;100896.31;5042375;28;20048;-68
2023/11/24 06:08:37;;;;;;;12.23;1.48;;;;;;;6.43;100.00;100895.94;5044764;28;20055;-65
2023/11/24 06:11:02;;;;;;;12.98;1.40;;;;;;;6.47;100.00;100887.00;5040778;28;20037;-65
2023/11/24 06:13:28;;;;;;;13.05;1.92;;;;;;;6.42;100.00;100892.56;5043567;28;20150;-65
2023/11/24 06:15:56;;;;;;;4.28;1.10;;;;;;;6.36;100.00;100887.88;5042389;28;20107;-65
2023/11/24 06:18:22;;;;;;;12.98;1.75;;;;;;;6.29;100.00;100878.22;5044763;28;20067;-65
2023/11/24 06:20:47;;;;;;;10.27;1.70;;;;;;;6.20;100.00;100875.47;5042493;28;20029;-66
2023/11/24 06:23:13;;;;;;;11.48;1.30;;;;;;;6.35;100.00;100880.31;5044653;28;20957;-66
2023/11/24 06:25:38;;;;;;;14.80;1.95;;;;;;;6.24;100.00;100882.00;5028755;28;20036;-66
2023/11/24 06:28:04;;;;;;;16.33;1.70;;;;;;;6.20;100.00;100874.66;5043608;28;20280;-66
2023/11/24 06:30:29;;;;;;;9.10;1.15;;;;;;;6.30;100.00;100872.94;5042164;28;20033;-66
2023/11/24 06:32:55;;;;;;;19.08;1.55;;;;;;;6.26;100.00;100865.63;5038539;28;20486;-66
2023/11/24 06:35:20;;;;;;;15.20;2.25;;;;;;;6.32;100.00;100867.69;5040276;28;20113;-66
2023/11/24 06:37:46;;;;;;;16.52;1.65;;;;;;;6.32;100.00;100875.41;5043091;28;20079;-66
2023/11/24 06:40:11;;;;;;;14.77;2.65;;;;;;;6.23;100.00;100874.38;5040169;28;20650;-66
2023/11/24 06:42:40;;;;;;;11.27;1.50;;;;;;;6.31;100.00;100879.75;5040867;28;20025;-66
2023/11/24 06:45:09;;;;;;;14.77;1.52;;;;;;;6.16;100.00;100889.53;5042463;28;20434;-66
2023/11/24 06:47:39;;;;;;;7.95;1.90;;;;;;;6.05;100.00;100881.88;5041540;28;20043;-66
2023/11/24 06:50:08;;;;;;;11.80;1.42;;;;;;;6.08;100.00;100894.47;5041393;28;20427;-66
2023/11/24 06:52:33;;;;;;;8.30;1.30;;;;;;;5.99;100.00;100896.06;5039550;28;20044;-66
2023/11/24 06:54:59;;;;;;;12.43;2.25;;;;;;;6.02;100.00;100892.41;5044995;28;20029;-66
2023/11/24 06:57:25;;;;;;;12.48;2.65;;;;;;;6.06;100.00;100874.97;5039390;28;20380;-66
2023/11/24 06:59:50;;;;;;;11.30;1.70;;;;;;;6.04;100.00;100886.19;5040017;28;20064;-66
2023/11/24 07:02:16;;;;;;;5.38;1.40;;;;;;;6.10;100.00;100878.91;5040788;28;20033;-66
2023/11/24 07:04:42;;;;;;;11.35;2.42;;;;;;;6.10;100.00;100864.28;5043351;28;20040;-66
2023/11/24 07:07:08;;;;;;;17.17;2.88;;;;;;;6.03;100.00;100871.69;5037885;28;20025;-66
2023/11/24 07:09:33;;;;;;;18.15;2.17;;;;;;;6.09;100.00;100864.41;5039509;28;20052;-66
2023/11/24 07:11:59;;;;;;;18.63;3.30;;;;;;;6.27;100.00;100867.22;5044617;28;20041;-66
2023/11/24 07:14:24;;;;;;;14.48;2.97;;;;;;;6.31;100.00;100860.88;5036681;28;20515;-66
2023/11/24 07:16:50;;;;;;;16.60;3.47;;;;;;;6.21;100.00;100869.34;5042728;28;20033;-66
2023/11/24 07:19:17;;;;;;;14.93;2.10;;;;;;;6.32;100.00;100873.63;5041283;28;20037;-66
2023/11/24 07:21:43;;;;;;;18.17;3.55;;;;;;;6.28;100.00;100874.84;5042402;28;20037;-66
2023/11/24 07:24:08;;;;;;;13.02;2.15;;;;;;;6.28;100.00;100881.75;5043388;28;20040;-66
2023/11/24 07:26:34;;;;;;;15.07;1.60;;;;;;;6.22;100.00;100881.31;5040176;28;20466;-66
2023/11/24 07:29:00;;;;;;;12.77;1.83;;;;;;;6.13;100.00;100886.41;5037866;28;20045;-67
2023/11/24 07:31:28;;;;;;;12.35;1.67;;;;;;;5.95;100.00;100893.81;5036318;28;20185;-66
2023/11/24 07:33:54;;;;;;;5.28;0.95;;;;;;;5.91;100.00;100882.13;5040154;28;20033;-67
2023/11/24 07:36:20;;;;;;;12.93;2.42;;;;;;;5.77;100.00;100878.91;5024849;28;20037;-67
2023/11/24 07:38:45;;;;;;;7.93;1.98;;;;;;;5.69;100.00;100865.00;5041145;28;20517;-66
2023/11/24 07:41:11;;;;;;;11.75;1.30;;;;;;;5.62;100.00;100877.56;5038127;28;20483;-66
2023/11/24 07:43:36;;;;;;;6.35;1.13;;;;;;;5.76;100.00;100876.44;5039768;28;20037;-66
2023/11/24 07:46:06;;;;;;;9.73;1.80;;;;;;;5.71;100.00;100874.25;5045224;28;20581;-66
2023/11/24 07:48:33;;;;;;;11.35;1.10;;;;;;;5.70;100.00;100884.66;5045599;28;20041;-67
2023/11/24 07:50:59;;;;;;;9.40;1.00;;;;;;;5.72;100.00;100875.88;5034063;28;20048;-66
2023/11/24 07:53:25;;;;;;;9.00;1.00;;;;;;;5.63;100.00;100880.00;5042046;28;20518;-66
2023/11/24 07:55:50;;;;;;;12.50;2.35;;;;;;;5.62;100.00;100873.22;5039583;28;20029;-66
2023/11/24 07:58:16;;;;;;;12.38;1.90;;;;;;;5.58;100.00;100865.88;5045342;28;20056;-66
2023/11/24 08:00:41;;;;;;;6.72;1.02;;;;;;;5.46;100.00;100858.19;5043938;28;20044;-66
2023/11/24 08:03:07;;;;;;;7.28;1.00;;;;;;;5.44;100.00;100849.78;5049100;28;20076;-66
2023/11/24 08:05:33;;;;;;;9.10;0.90;;;;;;;5.61;100.00;100858.75;5045403;27;20499;-66
2023/11/24 08:08:00;;;;;;;12.35;1.40;;;;;;;5.62;100.00;100852.63;5047520;28;20033;-67
2023/11/24 08:10:27;;;;;;;23.02;4.07;;;;;;;5.77;100.00;100862.66;5045489;28;20036;-66
2023/11/24 08:12:52;;;;;;;10.65;1.67;;;;;;;5.82;100.00;100852.78;5045533;28;20106;-66
2023/11/24 08:15:19;;;;;;;10.68;1.20;;;;;;;5.88;100.00;100846.31;5045395;28;20705;-67
2023/11/24 08:17:44;;;;;;;7.45;1.30;;;;;;;5.96;100.00;100851.72;5062208;28;20047;-66
2023/11/24 08:20:10;;;;;;;13.93;1.85;;;;;;;5.89;100.00;100828.19;5037981;28;20037;-67
2023/11/24 08:22:36;;;;;;;17.08;1.48;;;;;;;5.78;100.00;100835.97;5049139;28;20409;-67
2023/11/24 08:25:03;;;;;;;8.57;0.98;;;;;;;5.69;100.00;100837.53;5046560;28;20046;-66
2023/11/24 08:27:28;;;;;;;5.57;1.40;;;;;;;5.73;100.00;100838.94;5046720;28;20025;-65
2023/11/24 08:29:54;;;;;;;8.10;1.70;;;;;;;5.77;100.00;100837.72;5044077;28;20056;-66
2023/11/24 08:32:19;;;;;;;9.07;1.20;;;;;;;5.73;100.00;100832.97;5044312;28;20492;-66
2023/11/24 08:34:45;;;;;;;9.90;1.50;;;;;;;5.65;100.00;100824.09;5045632;28;20060;-66
2023/11/24 08:37:11;;;;;;;7.43;1.02;;;;;;;5.68;100.00;100830.75;5045493;28;20051;-66
2023/11/24 08:39:36;;;;;;;12.70;2.78;;;;;;;5.58;100.00;100830.69;5044273;28;20063;-66
2023/11/24 08:42:03;;;;;;;7.10;1.00;;;;;;;5.61;100.00;100821.88;5028591;28;20056;-67
2023/11/24 08:44:30;;;;;;;7.68;1.55;;;;;;;5.71;100.00;100827.09;5046934;28;20204;-66
2023/11/24 08:46:56;;;;;;;11.90;2.10;;;;;;;5.94;100.00;100822.69;5044039;28;20033;-67
2023/11/24 08:49:22;;;;;;;8.40;1.10;;;;;;;6.03;100.00;100814.25;5044940;28;20513;-66
2023/11/24 08:51:47;;;;;;;9.48;1.20;;;;;;;6.07;100.00;100807.09;5043751;28;20041;-66
2023/11/24 08:54:13;;;;;;;14.38;1.40;;;;;;;6.08;100.00;100816.44;5045418;28;20052;-67
2023/11/24 08:56:39;;;;;;;8.23;1.55;;;;;;;6.17;100.00;100813.09;5046848;28;20037;-66
2023/11/24 08:59:08;;;;;;;8.25;1.60;;;;;;;6.14;100.00;100805.63;5053539;28;20029;-66
2023/11/24 09:01:34;;;;;;;16.05;1.90;;;;;;;6.20;100.00;100815.44;5051944;28;20048;-66
2023/11/24 09:04:00;;;;;;;13.63;1.75;;;;;;;6.21;100.00;100817.06;5052351;28;20025;-66
2023/11/24 09:06:35;;;;;;;11.25;1.60;;;;;;;6.12;100.00;100813.50;5052780;28;20052;-66
2023/11/24 09:09:00;;;;;;;8.38;1.45;;;;;;;6.03;100.00;100797.03;5047448;28;20097;-66
2023/11/24 09:11:26;;;;;;;10.98;1.55;;;;;;;6.08;100.00;100798.41;5046371;28;20453;-66
2023/11/24 09:13:51;;;;;;;18.65;2.20;;;;;;;6.16;100.00;100793.44;5045593;28;20044;-66
2023/11/24 09:16:18;;;;;;;8.40;1.80;;;;;;;6.23;100.00;100790.25;5042910;28;20523;-66
2023/11/24 09:18:44;;;;;;;9.45;1.52;;;;;;;6.35;100.00;100780.66;5047666;28;20033;-66
2023/11/24 09:21:10;;;;;;;16.38;1.77;;;;;;;6.26;100.00;100781.44;5040922;28;20534;-66
2023/11/24 09:23:36;;;;;;;10.20;1.40;;;;;;;6.23;100.00;100766.22;5043684;28;20039;-66
2023/11/24 09:26:02;;;;;;;11.48;0.98;;;;;;;6.17;100.00;100774.47;5027983;28;20531;-65
2023/11/24 09:28:29;;;;;;;3.55;1.00;;;;;;;6.20;100.00;100782.75;5047025;28;20127;-65
2023/11/24 09:30:55;;;;;;;9.45;2.03;;;;;;;6.30;100.00;100769.13;5043199;28;20060;-66
2023/11/24 09:33:21;;;;;;;12.43;1.45;;;;;;;6.17;100.00;100774.47;5046315;28;20122;-66
2023/11/24 09:35:47;;;;;;;6.10;0.75;;;;;;;6.19;100.00;100775.97;5043835;28;20072;-66
2023/11/24 09:38:13;;;;;;;3.90;0.77;;;;;;;6.21;100.00;100775.84;5056305;28;20039;-66
2023/11/24 09:40:38;;;;;;;8.57;1.20;;;;;;;6.22;100.00;100762.03;5039226;28;20040;-66
2023/11/24 09:43:04;;;;;;;5.65;1.23;;;;;;;6.23;100.00;100768.81;5045760;28;20025;-66
2023/11/24 09:45:30;;;;;;;7.30;0.93;;;;;;;6.14;100.00;100767.84;5042387;28;20124;-66
2023/11/24 09:47:56;;;;;;;14.25;1.33;;;;;;;6.11;100.00;100778.38;5042600;28;20128;-66
2023/11/24 09:50:25;;;;;;;9.63;1.15;;;;;;;6.21;100.00;100775.84;5027733;28;20597;-66
2023/11/24 09:52:54;;;;;;;11.90;1.30;;;;;;;6.17;100.00;100772.72;5043576;28;20087;-66
2023/11/24 09:55:21;;;;;;;9.90;1.08;;;;;;;6.06;100.00;100782.28;5039409;28;20116;-66
2023/11/24 09:57:47;;;;;;;4.80;0.90;;;;;;;6.00;100.00;100768.97;5044904;28;20040;-66
2023/11/24 10:00:15;;;;;;;6.68;1.20;;;;;;;5.90;100.00;100767.25;5043211;28;20036;-65
2023/11/24 10:02:41;;;;;;;8.23;1.08;;;;;;;5.88;100.00;100763.97;5042219;28;20033;-66
2023/11/24 10:05:08;;;;;;;5.03;0.98;;;;;;;5.88;100.00;100769.13;5042118;28;20065;-66
2023/11/24 10:07:36;;;;;;;6.30;0.90;;;;;;;5.91;100.00;100769.69;5044824;28;20029;-66
2023/11/24 10:10:04;;;;;;;10.98;1.30;;;;;;;5.85;100.00;100771.00;5041884;28;20060;-66
2023/11/24 10:12:30;;;;;;;8.45;1.27;;;;;;;5.87;100.00;100772.66;5025087;28;20037;-66
2023/11/24 10:14:56;;;;;;;11.13;1.05;;;;;;;5.92;100.00;100781.63;5043461;28;20064;-66
2023/11/24 10:17:22;;;;;;;6.95;1.77;;;;;;;5.97;100.00;100773.53;5045432;28;20479;-66
2023/11/24 10:19:52;;;;;;;8.93;1.10;;;;;;;5.93;100.00;100775.53;5041001;28;20055;-65
2023/11/24 10:22:19;;;;;;;8.93;1.05;;;;;;;5.99;100.00;100775.06;5038597;28;20033;-66
2023/11/24 10:24:45;;;;;;;7.78;1.10;;;;;;;6.04;100.00;100769.53;5042819;28;20037;-66
2023/11/24 10:27:21;;;;;;;10.48;1.20;;;;;;;5.91;100.00;100763.72;5041896;28;20091;-66
2023/11/24 10:29:51;;;;;;;11.02;1.40;;;;;;;5.99;100.00;100775.06;5033726;28;20061;-66
2023/11/24 10:32:20;;;;;;;4.43;1.33;;;;;;;6.08;100.00;100764.94;5037513;28;20159;-66
2023/11/24 10:34:48;;;;;;;8.68;1.00;;;;;;;6.20;100.00;100771.66;5039845;28;20082;-66
2023/11/24 10:37:20;;;;;;;11.45;1.88;;;;;;;6.17;100.00;100766.75;5036918;28;20037;-65
2023/11/24 10:39:47;;;;;;;6.32;0.98;;;;;;;6.10;100.00;100771.59;5041679;28;20513;-66
2023/11/24 10:42:18;;;;;;;10.00;1.30;;;;;;;6.14;100.00;100754.97;5041382;28;20127;-66
2023/11/24 10:44:44;;;;;;;12.90;1.75;;;;;;;6.14;100.00;100760.13;5023310;28;20032;-66
2023/11/24 10:47:11;;;;;;;4.03;1.00;;;;;;;6.20;100.00;100754.44;5037487;28;20470;-65
2023/11/24 10:50:05;;;;;;;5.90;1.27;;;;;;;6.06;100.00;100757.34;5029374;28;20038;-66
2023/11/24 10:52:36;;;;;;;10.18;1.20;;;;;;;6.09;100.00;100756.28;5031466;28;20076;-66
2023/11/24 10:55:13;;;;;;;8.77;1.50;;;;;;;6.20;100.00;100740.75;5041237;28;20086;-66
2023/11/24 10:57:40;;;;;;;11.40;0.80;;;;;;;6.12;100.00;100723.38;5045854;28;20037;-66
2023/11/24 11:00:08;;;;;;;9.18;1.52;;;;;;;6.08;100.00;100729.72;5035971;28;20517;-65
2023/11/24 11:02:39;;;;;;;3.70;0.70;;;;;;;5.98;99.80;100721.13;5025471;28;20090;-66
2023/11/24 11:05:43;;;;;;;6.63;1.02;;;;;;;6.13;100.00;100712.13;5038959;28;20613;-66
2023/11/24 11:08:19;;;;;;;8.32;1.20;;;;;;;6.22;99.20;100715.69;5042865;28;20040;-66
2023/11/24 11:11:12;;;;;;;10.07;1.20;;;;;;;6.34;99.42;100711.25;5020121;28;20106;-65
2023/11/24 11:13:43;;;;;;;7.78;0.90;;;;;;;6.39;98.63;100699.63;5041861;28;20047;-65
2023/11/24 11:16:12;;;;;;;7.72;1.25;;;;;;;6.39;97.68;100717.66;5039067;28;20495;-65
2023/11/24 11:18:38;;;;;;;1.50;0.57;;;;;;;6.43;97.13;100715.63;5040006;28;20029;-65